Aérodrome :
LOGIN :

S'inscrire | Disclaimer

   EN    FR    IT 

 










Légende :    VFR   VFR Marginal   IFR   IFR Intensif   IFR Très Intensif
Visi : 
Plafond : 
>= 8 km
>= 3000ft
5 à 8 km
1000 à 3000 ft
1500m à 5 km
500 à 1000 ft
800 à 1500m
200 à 500 ft
< 800m
< 200 ft
Symboles :   Orages  Brouillard  Fortes neiges  Fortes précipitations  Vent > 20 kt
SIGMETs :   Divers  Orages  Givrage  Turbulence  Onde Orograph.  Cendres Volcan.







- Altitude de l'aérodrome : 989 ft
- Code IATA : TRN


LIMF - Torino Caselle

DERNIER METAR :
  • 011720Z 03005KT CAVOK 14/M06 Q1010

METARs EXPIRÉS :
  • 011650Z VRB01KT CAVOK 15/M09 Q1010
  • 011620Z 14005KT 110V170 CAVOK 16/M08 Q1009
  • 011550Z 15005KT 110V190 CAVOK 17/M08 Q1009
  • 011520Z 19006KT CAVOK 17/M07 Q1009
  • 011450Z 15006KT 120V210 CAVOK 17/M08 Q1009

TAF TAF LIMF
Valide du 01 à 18h jusqu'au 02 à 18h UTC


011700Z 0118/0218 29007KT CAVOK
Pas de NOTAMs connus pour ce terrain.
1 SIGMET publié pour la FIR Milano (LIMM) :
 
LIMM SIGMET 14 VALID 011610/012010 LIMM- LIMM MILANO FIR SEV TURB FCST N OF LINE N4444 E00651 - N4556 E01344 FL100/240 MOV E WKN=



MET'MAP, la Météo Aéronautique d'un coup d'oeil ! - Copyright ORBIFLY Décembre 2007 - Disclaimer

ORBIFLY MET'MAP TEAM :

Programmation & Développement : Alexandra Zaïnal
Conception & Développement : Baudouin d'Aumeries
Co-Programmation & Développement : Marc-Olivier Méhu
Soutien technique & logistique : Manuel Goepfert

Contact : metmap@orbifly.com




SOURCES & CREDITS :

   NOAA